Time;durP1;ratioP1;P1;durP2;ratioP2;P2;SDS_P1;SDS_P2;PMS_P1;PMS_P2;Temp;Humidity;BMP_temperature;BMP_pressure;BME280_temperature;BME280_humidity;BME280_pressure;Samples;Min_cycle;Max_cycle;Signal;HPM_P1;HPM_P2
2023/05/30 00:01:36;;;;;;;;;3.00;3.00;;;;;20.07;40.23;101643.19;5017307;28;45842;-76
2023/05/30 00:04:02;;;;;;;;;4.00;4.00;;;;;20.21;40.21;101680.13;5015188;28;45471;-77
2023/05/30 00:06:27;;;;;;;;;2.67;2.67;;;;;19.91;40.26;101618.75;4997588;28;45475;-74
2023/05/30 00:08:53;;;;;;;;;5.67;4.33;;;;;20.09;40.06;101670.63;5015023;28;45516;-76
2023/05/30 00:11:19;;;;;;;;;4.33;4.00;;;;;19.84;40.24;101644.59;5015367;28;45511;-76
2023/05/30 00:13:53;;;;;;;;;6.33;5.00;;;;;20.01;40.12;101673.47;5017477;28;46313;-75
2023/05/30 00:16:20;;;;;;;;;5.00;5.00;;;;;19.89;40.22;101650.69;5015152;28;45725;-76
2023/05/30 00:18:48;;;;;;;;;4.33;3.67;;;;;19.80;40.07;101637.59;5017483;28;45467;-75
2023/05/30 00:21:17;;;;;;;;;7.00;4.33;;;;;19.88;40.20;101642.75;4997754;28;46787;-75
2023/05/30 00:23:48;;;;;;;;;4.00;4.00;;;;;19.90;40.25;101636.47;5015586;28;45526;-74
2023/05/30 00:26:15;;;;;;;;;5.00;3.33;;;;;19.49;39.82;101570.94;5016269;28;45459;-75
2023/05/30 00:28:41;;;;;;;;;4.33;4.33;;;;;19.95;39.65;101638.16;5019877;28;45740;-75
2023/05/30 00:31:07;;;;;;;;;5.33;4.00;;;;;19.60;39.71;101574.22;5019080;28;46117;-76
2023/05/30 00:33:37;;;;;;;;;5.00;4.00;;;;;20.17;39.56;101673.09;5019691;28;45511;-77
2023/05/30 00:36:06;;;;;;;;;5.00;5.00;;;;;20.20;39.33;101662.41;5008872;28;45510;-76
2023/05/30 00:38:34;;;;;;;;;4.33;4.00;;;;;20.15;39.46;101677.63;4985309;28;45932;-75
2023/05/30 00:41:02;;;;;;;;;3.33;2.00;;;;;20.00;39.25;101646.91;4960747;28;46794;-75
2023/05/30 00:43:28;;;;;;;;;4.33;3.33;;;;;20.21;39.09;101688.97;4997525;28;45342;-75
2023/05/30 00:45:54;;;;;;;;;6.67;3.67;;;;;20.10;39.17;101651.13;5000749;28;45586;-77
2023/05/30 00:48:22;;;;;;;;;6.00;4.00;;;;;20.20;38.99;101673.94;5002486;28;45353;-77
2023/05/30 00:50:48;;;;;;;;;4.00;4.00;;;;;19.93;38.65;101635.53;4994375;28;46221;-76
2023/05/30 00:53:15;;;;;;;;;5.67;4.00;;;;;19.93;38.87;101632.88;4994979;28;45556;-76
2023/05/30 00:55:41;;;;;;;;;4.33;3.00;;;;;19.74;38.66;101603.16;4996655;28;45401;-76
2023/05/30 00:58:07;;;;;;;;;4.33;4.00;;;;;19.90;38.89;101641.78;4996568;28;45497;-78
2023/05/30 01:00:38;;;;;;;;;4.33;4.33;;;;;19.82;39.06;101626.94;4976186;28;45824;-78
2023/05/30 01:03:08;;;;;;;;;4.00;4.00;;;;;20.05;38.97;101675.16;4976699;28;45448;-76
2023/05/30 01:05:35;;;;;;;;;4.33;4.00;;;;;19.89;39.12;101661.31;4990594;28;45428;-76
2023/05/30 01:08:01;;;;;;;;;4.00;4.00;;;;;19.95;39.13;101672.72;4998435;28;45535;-77
2023/05/30 01:10:30;;;;;;;;;4.67;3.67;;;;;19.83;39.09;101663.25;5019339;28;46258;-76
2023/05/30 01:13:38;;;;;;;;;9.33;5.00;;;;;19.88;39.18;101661.34;5000885;28;45475;-77
2023/05/30 01:16:07;;;;;;;;;5.00;5.00;;;;;19.86;39.41;101677.34;5017019;28;45441;-78
2023/05/30 01:19:02;;;;;;;;;6.67;4.67;;;;;19.76;39.35;101659.84;5014692;28;45806;-76
2023/05/30 01:21:32;;;;;;;;;4.67;4.00;;;;;19.83;39.42;101673.88;4996686;28;46787;-76
2023/05/30 01:24:25;;;;;;;;;8.00;6.00;;;;;19.76;39.75;101665.16;5014703;28;45313;-76
2023/05/30 01:27:15;;;;;;;;;4.67;4.00;;;;;19.65;39.65;101649.41;5013975;28;45574;-75
2023/05/30 01:29:43;;;;;;;;;3.00;3.00;;;;;19.65;39.37;101660.03;5015612;28;45408;-75
2023/05/30 01:32:09;;;;;;;;;6.00;4.00;;;;;19.73;39.89;101675.84;5023868;28;45506;-75
2023/05/30 01:34:35;;;;;;;;;6.67;3.33;;;;;19.53;39.78;101648.78;5009425;28;45466;-77
2023/05/30 01:37:01;;;;;;;;;6.33;5.00;;;;;19.74;39.92;101687.34;5029649;28;44869;-75
2023/05/30 01:39:30;;;;;;;;;8.00;5.00;;;;;19.34;40.09;101616.41;5027509;28;45389;-75
2023/05/30 01:42:27;;;;;;;;;3.67;3.67;;;;;19.74;39.89;101680.25;5020739;28;45527;-74
2023/05/30 01:45:10;;;;;;;;;7.33;6.00;;;;;19.70;40.01;101673.28;5015582;28;45395;-76
2023/05/30 01:48:14;;;;;;;;;5.00;4.00;;;;;19.62;39.99;101662.78;5014789;28;45528;-76
2023/05/30 01:50:45;;;;;;;;;5.00;2.67;;;;;19.71;40.19;101685.63;5005502;28;45510;-75
2023/05/30 01:53:19;;;;;;;;;5.33;4.33;;;;;19.38;40.11;101623.41;5014004;28;45523;-75
2023/05/30 01:55:45;;;;;;;;;6.67;4.67;;;;;19.68;40.13;101696.34;5013703;28;45439;-76
2023/05/30 01:58:16;;;;;;;;;8.67;6.00;;;;;19.36;40.31;101639.41;5015735;28;45460;-75
2023/05/30 02:00:47;;;;;;;;;7.00;5.67;;;;;19.26;40.34;101632.50;5017977;28;45266;-76
2023/05/30 02:03:12;;;;;;;;;5.00;4.00;;;;;19.60;40.49;101695.56;5017443;28;46340;-75
2023/05/30 02:05:38;;;;;;;;;6.00;4.00;;;;;19.64;40.36;101689.28;5013865;28;45518;-76
2023/05/30 02:08:04;;;;;;;;;9.33;5.33;;;;;19.56;40.46;101675.31;5014366;28;45676;-75
2023/05/30 02:10:30;;;;;;;;;8.00;3.67;;;;;19.31;40.55;101657.19;5014547;28;45475;-75
2023/05/30 02:12:59;;;;;;;;;3.33;3.33;;;;;19.47;40.70;101698.47;5013774;28;47090;-75
2023/05/30 02:15:24;;;;;;;;;5.00;3.00;;;;;19.26;40.61;101667.03;5013846;28;45427;-75
2023/05/30 02:17:50;;;;;;;;;4.67;3.67;;;;;19.40;40.35;101694.19;5013170;28;45420;-75
2023/05/30 02:20:16;;;;;;;;;7.67;4.00;;;;;19.23;40.75;101667.09;5013997;28;45539;-76
2023/05/30 02:22:41;;;;;;;;;5.00;3.00;;;;;19.18;40.59;101675.16;5017529;28;46498;-77
2023/05/30 02:25:09;;;;;;;;;7.67;5.00;;;;;18.80;41.13;101605.06;5017940;28;45499;-77
2023/05/30 02:27:34;;;;;;;;;5.67;4.67;;;;;19.05;40.96;101640.00;5017914;28;45400;-76
2023/05/30 02:30:00;;;;;;;;;7.00;4.00;;;;;19.12;41.46;101650.47;5014115;28;45448;-77
2023/05/30 02:32:26;;;;;;;;;6.00;5.00;;;;;18.71;41.05;101583.09;5012804;28;45886;-76
2023/05/30 02:34:52;;;;;;;;;5.67;3.67;;;;;19.16;41.10;101657.50;4998626;28;45430;-75
2023/05/30 02:37:18;;;;;;;;;7.00;6.00;;;;;19.27;40.82;101674.09;5012756;28;45915;-76
2023/05/30 02:39:43;;;;;;;;;3.00;3.00;;;;;19.11;41.07;101669.97;4995543;28;45491;-76
2023/05/30 02:42:09;;;;;;;;;5.00;2.67;;;;;19.27;40.94;101698.88;5013916;28;45524;-76
2023/05/30 02:44:34;;;;;;;;;4.67;4.00;;;;;18.98;41.06;101646.31;5016594;28;45520;-78
2023/05/30 02:47:00;;;;;;;;;8.33;3.00;;;;;19.05;41.08;101660.34;5002178;28;45429;-76
2023/05/30 02:49:27;;;;;;;;;4.67;4.67;;;;;18.74;41.10;101606.91;5020979;28;45594;-75
2023/05/30 02:51:52;;;;;;;;;6.33;5.00;;;;;19.20;40.99;101685.75;5020647;28;46562;-77
2023/05/30 02:54:18;;;;;;;;;4.67;4.00;;;;;19.13;40.88;101676.16;5020606;28;45450;-78
2023/05/30 02:56:44;;;;;;;;;5.33;4.00;;;;;19.21;41.22;101698.97;5020477;28;45477;-76
2023/05/30 02:59:12;;;;;;;;;7.00;5.67;;;;;19.12;41.08;101688.53;4999724;28;45546;-77
2023/05/30 03:01:38;;;;;;;;;4.00;4.00;;;;;18.49;40.89;101577.28;4998341;28;47031;-76
2023/05/30 03:04:03;;;;;;;;;4.00;4.00;;;;;18.65;41.00;101619.44;5016269;28;45688;-77
2023/05/30 03:06:31;;;;;;;;;4.33;4.33;;;;;18.76;40.92;101643.16;5016459;28;45328;-76
2023/05/30 03:08:59;;;;;;;;;4.00;4.00;;;;;18.81;41.13;101659.00;4999293;28;45528;-75
2023/05/30 03:11:25;;;;;;;;;7.00;5.00;;;;;18.67;41.31;101634.44;5006175;28;46129;-77
2023/05/30 03:13:51;;;;;;;;;6.67;5.33;;;;;19.09;41.35;101708.97;5009523;28;45459;-78
2023/05/30 03:16:17;;;;;;;;;3.00;3.00;;;;;18.97;41.61;101692.34;5019621;28;45374;-78
2023/05/30 03:18:42;;;;;;;;;4.00;4.00;;;;;18.93;41.21;101684.44;5000261;28;45472;-78
2023/05/30 03:21:10;;;;;;;;;3.67;3.67;;;;;18.34;41.29;101586.38;4996585;28;46311;-78
2023/05/30 03:23:35;;;;;;;;;4.00;4.00;;;;;18.53;41.17;101646.19;5009347;28;45337;-78
2023/05/30 03:26:03;;;;;;;;;6.33;5.00;;;;;18.76;41.41;101671.44;5021448;28;45475;-75
2023/05/30 03:28:29;;;;;;;;;6.00;5.00;;;;;18.68;41.46;101676.03;5000597;28;45349;-80
2023/05/30 03:30:56;;;;;;;;;6.67;6.00;;;;;18.38;41.21;101622.56;5017177;28;46847;-78
2023/05/30 03:33:22;;;;;;;;;6.33;5.00;;;;;18.83;41.29;101710.28;4998605;28;45397;-76
2023/05/30 03:35:48;;;;;;;;;5.00;4.00;;;;;18.88;41.66;101720.81;5002443;28;45490;-77
2023/05/30 03:38:14;;;;;;;;;7.00;3.67;;;;;18.52;41.55;101660.34;4998700;28;45413;-77
2023/05/30 03:40:39;;;;;;;;;6.00;4.33;;;;;18.47;41.72;101653.38;4996013;28;46103;-75
2023/05/30 03:43:05;;;;;;;;;4.33;4.33;;;;;18.27;41.62;101632.44;4996156;28;45535;-77
2023/05/30 03:45:31;;;;;;;;;4.67;3.67;;;;;18.68;41.45;101698.13;4994663;28;45436;-76
2023/05/30 03:47:57;;;;;;;;;4.33;4.00;;;;;18.31;41.43;101650.94;4996489;28;45539;-76
2023/05/30 03:50:22;;;;;;;;;3.00;3.00;;;;;18.75;41.25;101720.13;4996316;28;46057;-77
2023/05/30 03:52:48;;;;;;;;;6.00;4.00;;;;;18.40;41.39;101674.66;4978141;28;45367;-77
2023/05/30 03:55:14;;;;;;;;;5.67;5.67;;;;;18.61;41.70;101709.72;4995195;28;45512;-76
2023/05/30 03:57:40;;;;;;;;;4.33;4.33;;;;;18.72;41.51;101736.06;4996229;28;45419;-77
2023/05/30 04:00:06;;;;;;;;;9.00;4.00;;;;;18.63;41.51;101708.81;4978339;28;46605;-77
2023/05/30 04:02:32;;;;;;;;;5.67;4.00;;;;;18.48;41.58;101687.81;5000361;28;45395;-76
2023/05/30 04:04:57;;;;;;;;;5.67;4.00;;;;;18.63;41.82;101727.38;5007548;28;45405;-76
2023/05/30 04:07:27;;;;;;;;;7.33;5.00;;;;;18.28;41.19;101671.34;5016035;28;45376;-76
2023/05/30 04:10:01;;;;;;;;;12.33;6.67;;;;;18.52;41.69;101700.13;5016162;28;45733;-76
2023/05/30 04:12:28;;;;;;;;;7.67;4.33;;;;;18.26;41.53;101678.44;5000602;28;45485;-75
2023/05/30 04:14:54;;;;;;;;;6.67;4.67;;;;;18.62;41.50;101727.38;5015545;28;45539;-76
2023/05/30 04:17:19;;;;;;;;;6.00;5.00;;;;;18.48;41.49;101709.03;5015603;28;45373;-77
2023/05/30 04:19:46;;;;;;;;;7.67;4.33;;;;;18.30;41.60;101680.16;5015145;28;45447;-76
2023/05/30 04:22:11;;;;;;;;;7.00;4.00;;;;;18.15;41.66;101660.03;5018042;28;45335;-77
2023/05/30 04:24:37;;;;;;;;;3.33;3.00;;;;;18.58;41.34;101734.53;5017257;28;45469;-75
2023/05/30 04:27:03;;;;;;;;;6.00;4.00;;;;;18.05;41.79;101640.72;5015812;28;45604;-73
2023/05/30 04:29:29;;;;;;;;;6.00;3.00;;;;;18.51;41.71;101716.97;5015446;28;46320;-77
2023/05/30 04:31:56;;;;;;;;;7.33;3.33;;;;;18.60;41.35;101737.16;5015322;28;45443;-74
2023/05/30 04:34:22;;;;;;;;;5.00;4.00;;;;;18.58;41.62;101739.84;5015155;28;45349;-77
2023/05/30 04:36:48;;;;;;;;;9.67;6.00;;;;;18.56;41.51;101738.13;5015191;28;45318;-74
2023/05/30 04:39:14;;;;;;;;;5.00;4.00;;;;;18.58;41.50;101747.81;5017416;28;45936;-76
2023/05/30 04:41:40;;;;;;;;;4.33;3.00;;;;;18.39;41.44;101722.47;5015089;28;45349;-77
2023/05/30 04:44:06;;;;;;;;;4.00;4.00;;;;;18.23;41.60;101708.53;5013025;28;45681;-78
2023/05/30 04:46:32;;;;;;;;;7.00;5.00;;;;;18.54;41.48;101769.09;5020368;28;45458;-78
2023/05/30 04:49:01;;;;;;;;;3.00;2.67;;;;;18.53;41.44;101762.91;5019969;28;45894;-75
2023/05/30 04:51:28;;;;;;;;;6.67;5.33;;;;;18.50;41.34;101764.72;4998916;28;45479;-76
2023/05/30 04:53:54;;;;;;;;;5.33;2.67;;;;;18.41;41.47;101752.47;4997275;28;45401;-77
2023/05/30 04:56:20;;;;;;;;;10.33;7.67;;;;;18.01;41.11;101692.94;4997338;28;46028;-76
2023/05/30 04:58:51;;;;;;;;;6.00;5.00;;;;;18.23;41.15;101730.63;5016977;28;45357;-75
2023/05/30 05:01:18;;;;;;;;;6.33;3.00;;;;;18.47;41.47;101775.38;5023912;28;45412;-79
2023/05/30 05:03:45;;;;;;;;;4.00;4.00;;;;;18.30;41.45;101741.16;5003820;28;45457;-76
2023/05/30 05:06:11;;;;;;;;;8.00;5.00;;;;;18.02;41.15;101685.84;5012579;28;45789;-76
2023/05/30 05:08:37;;;;;;;;;5.33;4.00;;;;;17.92;41.43;101694.81;4996201;28;45566;-76
2023/05/30 05:11:05;;;;;;;;;5.33;4.00;;;;;18.23;41.18;101735.03;5015158;28;45499;-76
2023/05/30 05:13:31;;;;;;;;;8.00;5.00;;;;;18.27;41.17;101741.16;4999058;28;45531;-77
2023/05/30 05:15:57;;;;;;;;;3.00;3.00;;;;;18.36;41.40;101771.09;4999747;28;45547;-75
2023/05/30 05:18:23;;;;;;;;;6.00;5.00;;;;;18.25;42.37;101777.44;5014493;28;45905;-76
2023/05/30 05:20:49;;;;;;;;;6.33;4.67;;;;;18.23;41.77;101757.13;5014714;28;45451;-76
2023/05/30 05:23:15;;;;;;;;;4.67;4.33;;;;;18.13;41.37;101728.13;5013240;28;45492;-75
2023/05/30 05:25:41;;;;;;;;;5.00;4.00;;;;;18.46;41.23;101785.13;5005789;28;45827;-76
2023/05/30 05:28:06;;;;;;;;;5.67;4.67;;;;;18.45;40.94;101762.13;4998792;28;45862;-76
2023/05/30 05:30:32;;;;;;;;;6.00;4.67;;;;;18.01;40.89;101671.72;4996377;28;45853;-77
2023/05/30 05:32:58;;;;;;;;;3.00;3.00;;;;;18.30;40.96;101718.16;4995092;28;45322;-78
2023/05/30 05:35:24;;;;;;;;;6.33;3.67;;;;;18.73;40.64;101781.19;4995192;28;45806;-78
2023/05/30 05:37:51;;;;;;;;;3.00;3.00;;;;;18.82;40.77;101781.06;4976550;28;46271;-76
2023/05/30 05:40:19;;;;;;;;;6.00;4.00;;;;;18.87;40.74;101767.72;4976815;28;45899;-79
2023/05/30 05:42:45;;;;;;;;;9.33;5.00;;;;;18.84;40.37;101760.69;4976392;28;45393;-78
2023/05/30 05:45:12;;;;;;;;;4.67;4.67;;;;;18.66;40.26;101726.44;4977152;28;45499;-77
2023/05/30 05:47:38;;;;;;;;;6.67;3.00;;;;;18.98;40.16;101754.25;4995178;28;46189;-79
2023/05/30 05:50:05;;;;;;;;;5.33;5.00;;;;;19.12;40.12;101783.25;4994408;28;45831;-80
2023/05/30 05:52:30;;;;;;;;;12.00;7.00;;;;;19.15;40.11;101789.41;4976381;28;45766;-76
2023/05/30 05:54:56;;;;;;;;;7.33;5.33;;;;;18.90;40.07;101749.09;4977286;28;45398;-79
2023/05/30 05:57:22;;;;;;;;;4.33;4.00;;;;;18.95;39.93;101760.50;4979577;28;46802;-77
2023/05/30 05:59:48;;;;;;;;;7.67;6.00;;;;;19.15;40.00;101778.78;4996082;28;45453;-79
2023/05/30 06:02:14;;;;;;;;;5.67;4.00;;;;;18.95;40.07;101738.41;5000006;28;45431;-78
2023/05/30 06:04:43;;;;;;;;;6.00;4.00;;;;;19.23;39.91;101783.94;5002251;28;45971;-77
2023/05/30 06:07:12;;;;;;;;;3.33;3.33;;;;;18.72;40.03;101681.25;5013276;28;45530;-77
2023/05/30 06:09:44;;;;;;;;;4.00;4.00;;;;;19.15;39.50;101744.25;4996106;28;45547;-76
2023/05/30 06:12:10;;;;;;;;;5.00;4.00;;;;;19.39;39.43;101769.50;5000279;28;45289;-80
2023/05/30 06:14:36;;;;;;;;;6.00;3.00;;;;;19.37;39.49;101755.34;5015317;28;45407;-79
2023/05/30 06:17:01;;;;;;;;;4.00;3.00;;;;;19.27;39.37;101732.53;5013648;28;45379;-80
2023/05/30 06:19:27;;;;;;;;;5.67;4.00;;;;;19.55;38.93;101767.44;5014028;28;45891;-77
2023/05/30 06:21:53;;;;;;;;;5.33;4.00;;;;;19.73;38.91;101790.16;5017554;28;45507;-75
2023/05/30 06:24:18;;;;;;;;;5.00;5.00;;;;;19.41;38.75;101718.97;5018410;28;45570;-76
2023/05/30 06:26:47;;;;;;;;;9.00;5.33;;;;;19.75;39.04;101775.03;5017674;28;46586;-75
2023/05/30 06:29:13;;;;;;;;;7.00;5.67;;;;;19.63;38.54;101735.41;5017927;28;45371;-78
2023/05/30 06:31:38;;;;;;;;;3.00;3.00;;;;;20.03;38.20;101796.66;4999624;28;45361;-76
2023/05/30 06:34:04;;;;;;;;;8.00;7.00;;;;;20.07;38.34;101787.69;4999505;28;45458;-76
2023/05/30 06:36:31;;;;;;;;;6.33;5.67;;;;;19.82;38.28;101730.63;5013553;28;46259;-75
2023/05/30 06:38:57;;;;;;;;;5.33;4.33;;;;;20.05;37.97;101770.91;4995188;28;45507;-74
2023/05/30 06:41:23;;;;;;;;;7.33;5.00;;;;;20.07;38.03;101761.09;5012963;28;45404;-77
2023/05/30 06:43:48;;;;;;;;;4.33;3.67;;;;;19.93;38.16;101749.84;4997154;28;45716;-76
2023/05/30 06:46:14;;;;;;;;;6.67;6.00;;;;;19.71;38.15;101712.22;5016866;28;45321;-76
2023/05/30 06:48:40;;;;;;;;;6.00;4.67;;;;;19.98;37.78;101761.31;4999160;28;45440;-76
2023/05/30 06:51:06;;;;;;;;;4.33;4.00;;;;;19.89;38.73;101732.25;5013757;28;45405;-79
2023/05/30 06:53:32;;;;;;;;;5.33;5.00;;;;;20.20;38.82;101769.69;5013683;28;45341;-75
2023/05/30 06:56:02;;;;;;;;;9.00;5.00;;;;;20.43;38.08;101798.47;5014031;28;46567;-79
2023/05/30 06:58:27;;;;;;;;;6.33;5.00;;;;;20.52;38.17;101789.38;5016305;28;45340;-80
2023/05/30 07:00:53;;;;;;;;;7.00;5.33;;;;;20.43;39.15;101763.88;5018215;28;45527;-77
2023/05/30 07:03:19;;;;;;;;;9.00;6.33;;;;;20.73;38.81;101804.00;5017643;28;45373;-78
2023/05/30 07:05:44;;;;;;;;;10.67;9.67;;;;;20.61;38.63;101762.59;5012931;28;45496;-77
2023/05/30 07:08:10;;;;;;;;;10.33;9.00;;;;;20.62;38.86;101750.13;5013729;28;45337;-85
2023/05/30 07:10:36;;;;;;;;;8.67;6.33;;;;;20.23;38.09;101663.22;5014730;28;45408;-79
2023/05/30 07:13:02;;;;;;;;;8.00;6.67;;;;;21.09;38.12;101794.25;5000130;28;45491;-79
2023/05/30 07:15:30;;;;;;;;;8.00;5.33;;;;;20.99;37.09;101763.44;5017082;28;45448;-78
2023/05/30 07:17:57;;;;;;;;;6.33;5.00;;;;;21.06;37.46;101770.38;5013747;28;46371;-78
2023/05/30 07:20:23;;;;;;;;;8.33;5.67;;;;;21.01;37.22;101758.09;5010443;28;45421;-73
2023/05/30 07:22:52;;;;;;;;;8.00;4.67;;;;;21.05;37.63;101765.97;4994917;28;45294;-74
2023/05/30 07:25:18;;;;;;;;;6.00;6.00;;;;;21.01;36.96;101758.94;4997214;28;47212;-77
2023/05/30 07:27:44;;;;;;;;;5.00;2.67;;;;;20.96;36.76;101752.88;5014390;28;45442;-74
2023/05/30 07:30:10;;;;;;;;;5.00;4.33;;;;;21.15;36.74;101788.78;5015495;28;45465;-76
2023/05/30 07:32:36;;;;;;;;;7.33;5.33;;;;;20.97;37.03;101770.59;5017189;28;45693;-77
2023/05/30 07:35:02;;;;;;;;;8.33;6.00;;;;;20.96;36.90;101761.72;5012780;28;46398;-77
2023/05/30 07:37:27;;;;;;;;;10.00;6.67;;;;;21.17;37.01;101794.09;5019161;28;45340;-76
2023/05/30 07:39:53;;;;;;;;;6.33;5.00;;;;;21.01;36.63;101796.25;5016445;28;45563;-76
2023/05/30 07:42:19;;;;;;;;;7.67;5.33;;;;;20.77;37.46;101802.16;4993288;28;45603;-76
2023/05/30 07:44:45;;;;;;;;;8.33;6.67;;;;;20.55;37.44;101784.00;5016594;28;45464;-74
2023/05/30 07:47:11;;;;;;;;;5.00;5.00;;;;;20.38;38.08;101804.78;5019226;28;45946;-77
2023/05/30 07:49:36;;;;;;;;;9.67;7.33;;;;;19.92;37.76;101732.16;5017903;28;45321;-77
2023/05/30 07:52:02;;;;;;;;;6.00;5.00;;;;;19.57;38.74;101731.06;5017563;28;45454;-76
2023/05/30 07:54:27;;;;;;;;;4.33;4.00;;;;;20.12;39.18;101812.41;5017200;28;46099;-77
2023/05/30 07:56:54;;;;;;;;;6.00;5.00;;;;;20.05;38.79;101775.31;5016915;28;45519;-76
2023/05/30 07:59:19;;;;;;;;;6.00;4.67;;;;;20.33;38.75;101797.78;5015928;28;45704;-78
2023/05/30 08:01:46;;;;;;;;;5.33;4.67;;;;;20.14;38.42;101743.22;5015302;28;45422;-76
2023/05/30 08:04:12;;;;;;;;;9.67;5.33;;;;;20.68;38.44;101820.09;5013392;28;46760;-77
2023/05/30 08:06:37;;;;;;;;;6.00;3.33;;;;;20.84;38.28;101809.09;5003454;28;45456;-76
2023/05/30 08:09:04;;;;;;;;;7.33;4.67;;;;;20.98;37.81;101808.78;5012387;28;45357;-75
2023/05/30 08:11:34;;;;;;;;;5.33;4.33;;;;;21.02;37.44;101799.78;5012293;28;45849;-78
2023/05/30 08:14:03;;;;;;;;;5.00;3.67;;;;;21.13;37.44;101803.91;5011697;28;45515;-76
2023/05/30 08:16:29;;;;;;;;;12.67;6.00;;;;;21.18;37.06;101788.69;5015787;28;45333;-74
2023/05/30 08:18:56;;;;;;;;;5.00;3.00;;;;;20.99;37.23;101739.47;5016629;28;45492;-76
2023/05/30 08:21:22;;;;;;;;;6.00;5.00;;;;;21.48;37.59;101815.50;5018103;28;45460;-77
2023/05/30 08:23:47;;;;;;;;;6.00;5.00;;;;;21.41;37.25;101784.59;5025216;28;46444;-76
2023/05/30 08:26:13;;;;;;;;;8.00;7.33;;;;;21.14;36.83;101751.50;5012896;28;45956;-76
2023/05/30 08:28:40;;;;;;;;;11.67;5.00;;;;;21.31;38.60;101818.56;5011994;28;45415;-76
2023/05/30 08:31:05;;;;;;;;;7.00;4.33;;;;;21.18;37.75;101795.81;5011395;28;46701;-76
2023/05/30 08:33:34;;;;;;;;;10.33;6.33;;;;;21.20;38.43;101809.09;5011477;28;45976;-77
2023/05/30 08:36:02;;;;;;;;;5.00;5.00;;;;;21.23;37.95;101796.56;5011803;28;45589;-77
2023/05/30 08:38:29;;;;;;;;;8.00;8.00;;;;;21.01;37.51;101790.91;5012343;28;45782;-78
2023/05/30 08:40:55;;;;;;;;;8.33;5.00;;;;;21.05;38.09;101813.03;5014853;28;45532;-77
2023/05/30 08:43:20;;;;;;;;;6.00;6.00;;;;;20.94;38.00;101808.81;5011796;28;46479;-77
2023/05/30 08:45:50;;;;;;;;;5.67;5.67;;;;;20.61;38.33;101778.56;5011120;28;45903;-77
2023/05/30 08:48:19;;;;;;;;;7.00;6.00;;;;;20.82;38.64;101806.47;5012594;28;45547;-77
2023/05/30 08:50:45;;;;;;;;;7.00;5.00;;;;;20.63;38.86;101766.09;5014384;28;45459;-77
2023/05/30 08:53:16;;;;;;;;;9.67;4.33;;;;;20.60;38.79;101747.53;5011894;28;45655;-76
2023/05/30 08:55:44;;;;;;;;;6.00;6.00;;;;;20.54;38.30;101707.72;5015297;28;45340;-76
2023/05/30 08:58:20;;;;;;;;;5.67;4.33;;;;;21.08;38.24;101765.88;4998626;28;45418;-76
2023/05/30 09:00:48;;;;;;;;;5.67;5.00;;;;;21.44;37.97;101797.84;5015744;28;45910;-76
2023/05/30 09:03:15;;;;;;;;;6.00;6.00;;;;;21.02;37.79;101704.75;4995230;28;47858;-75
2023/05/30 09:05:42;;;;;;;;;8.67;7.00;;;;;21.45;37.41;101786.28;5011438;28;45582;-76
2023/05/30 09:08:10;;;;;;;;;11.67;5.00;;;;;21.45;37.69;101764.06;5014574;28;45593;-74
2023/05/30 09:10:36;;;;;;;;;7.00;7.00;;;;;21.67;37.71;101791.91;5011759;28;45640;-75
2023/05/30 09:13:01;;;;;;;;;8.33;5.67;;;;;21.21;37.70;101707.81;4993252;28;47641;-76
2023/05/30 09:15:27;;;;;;;;;5.00;4.00;;;;;21.26;37.60;101703.25;5012895;28;45675;-78
2023/05/30 09:17:54;;;;;;;;;6.67;4.33;;;;;21.72;37.42;101775.78;4998947;28;45453;-77
2023/05/30 09:20:27;;;;;;;;;6.33;6.33;;;;;21.93;37.40;101780.50;5011465;28;45719;-77
2023/05/30 09:22:53;;;;;;;;;8.67;4.00;;;;;22.03;37.10;101781.97;5010486;28;46319;-77
2023/05/30 09:25:19;;;;;;;;;9.00;6.00;;;;;22.07;37.02;101781.88;5011223;28;45557;-78
2023/05/30 09:27:50;;;;;;;;;9.67;7.00;;;;;22.03;37.23;101781.09;4993330;28;45635;-74
2023/05/30 09:30:16;;;;;;;;;11.67;8.00;;;;;21.64;37.26;101725.34;5011064;28;45732;-76
2023/05/30 09:32:59;;;;;;;;;31.33;14.33;;;;;21.81;37.46;101759.53;5010739;28;46242;-75
2023/05/30 09:35:25;;;;;;;;;8.33;6.67;;;;;21.64;36.99;101728.00;5012546;28;45499;-74
2023/05/30 09:37:51;;;;;;;;;8.00;7.67;;;;;21.54;37.16;101726.50;5014306;28;45455;-75
2023/05/30 09:40:17;;;;;;;;;7.33;7.00;;;;;21.46;37.83;101753.38;5014943;28;45561;-77
2023/05/30 09:42:47;;;;;;;;;7.00;6.00;;;;;21.58;38.06;101785.00;5015091;28;45300;-76
2023/05/30 09:45:15;;;;;;;;;10.33;7.67;;;;;21.70;38.45;101780.28;5011533;28;45510;-74
2023/05/30 09:47:44;;;;;;;;;11.67;9.00;;;;;21.44;38.05;101723.22;5015427;28;45476;-77
2023/05/30 09:50:12;;;;;;;;;7.67;6.00;;;;;21.85;37.88;101779.81;5011339;28;45493;-76
2023/05/30 09:52:38;;;;;;;;;7.67;4.00;;;;;21.88;37.75;101770.84;5009980;28;45593;-75
2023/05/30 09:55:06;;;;;;;;;6.33;4.00;;;;;22.01;37.77;101775.78;4992364;28;46158;-75
2023/05/30 09:57:35;;;;;;;;;5.00;5.00;;;;;22.10;37.65;101771.13;5010646;28;45582;-76
2023/05/30 10:00:09;;;;;;;;;7.00;4.00;;;;;22.23;37.51;101785.88;5013681;28;45287;-76
2023/05/30 10:02:39;;;;;;;;;5.67;5.67;;;;;22.33;37.02;101770.44;5013620;28;45539;-76
2023/05/30 10:05:26;;;;;;;;;12.33;6.67;;;;;21.88;37.04;101672.19;4992388;28;45526;-77
2023/05/30 10:07:57;;;;;;;;;9.00;6.00;;;;;22.59;36.77;101769.63;4994276;28;45674;-77
2023/05/30 10:10:23;;;;;;;;;8.67;6.00;;;;;22.59;36.82;101765.19;5014317;28;45582;-78
2023/05/30 10:12:54;;;;;;;;;6.33;6.00;;;;;22.73;36.66;101774.53;4992080;28;47154;-77
2023/05/30 10:15:23;;;;;;;;;7.67;3.33;;;;;22.78;36.63;101770.81;5012975;28;45748;-76
2023/05/30 10:18:09;;;;;;;;;9.33;6.33;;;;;22.84;37.23;101775.06;5012241;28;45373;-75
2023/05/30 10:20:46;;;;;;;;;10.67;5.33;;;;;22.94;36.77;101767.63;5013183;28;45528;-78
2023/05/30 10:23:13;;;;;;;;;6.00;6.00;;;;;23.00;35.98;101770.13;4995350;28;47226;-77
2023/05/30 10:25:47;;;;;;;;;6.00;5.67;;;;;22.95;35.68;101754.22;4994979;28;45447;-77
2023/05/30 10:28:20;;;;;;;;;8.67;8.33;;;;;22.95;35.45;101756.91;4995566;28;45758;-76
2023/05/30 10:30:48;;;;;;;;;11.00;8.33;;;;;22.80;36.18;101778.75;5014943;28;45423;-78
2023/05/30 10:33:16;;;;;;;;;9.67;7.33;;;;;22.73;36.37;101764.75;4996930;28;47287;-77
2023/05/30 10:35:42;;;;;;;;;8.33;5.33;;;;;22.62;36.15;101710.81;5012849;28;45435;-77
2023/05/30 10:38:11;;;;;;;;;6.00;6.00;;;;;23.03;36.36;101765.53;5012946;28;45487;-76
2023/05/30 10:41:00;;;;;;;;;6.33;5.33;;;;;22.95;36.11;101740.88;4995023;28;45662;-75
2023/05/30 10:43:40;;;;;;;;;8.33;6.00;;;;;23.33;35.84;101777.94;5015207;28;45420;-75
2023/05/30 10:46:27;;;;;;;;;10.33;8.00;;;;;23.35;35.74;101738.63;5018153;28;45461;-76
2023/05/30 10:49:04;;;;;;;;;9.33;6.33;;;;;23.37;35.72;101769.75;5014676;28;45427;-77
2023/05/30 10:51:30;;;;;;;;;7.67;5.33;;;;;22.84;35.57;101661.09;5013895;28;45409;-77
2023/05/30 10:53:59;;;;;;;;;14.00;8.33;;;;;23.12;35.88;101689.53;5015062;28;45784;-77
2023/05/30 10:56:34;;;;;;;;;10.00;6.33;;;;;23.67;35.62;101748.16;5013297;28;45554;-76
2023/05/30 10:59:02;;;;;;;;;8.33;7.00;;;;;23.60;35.21;101726.13;5016496;28;45345;-77
2023/05/30 11:01:33;;;;;;;;;7.00;5.33;;;;;23.52;35.09;101696.13;5013497;28;45431;-78
2023/05/30 11:04:14;;;;;;;;;7.33;6.33;;;;;23.86;34.55;101727.84;5015217;28;45345;-77
2023/05/30 11:06:47;;;;;;;;;7.67;5.00;;;;;24.04;34.79;101734.31;5016399;28;45729;-77
2023/05/30 11:09:14;;;;;;;;;13.67;8.00;;;;;24.11;34.70;101732.28;5002092;28;45428;-76
2023/05/30 11:11:45;;;;;;;;;8.33;7.00;;;;;24.18;34.79;101730.22;5001707;28;45392;-77
2023/05/30 11:14:13;;;;;;;;;11.33;10.67;;;;;24.23;34.56;101718.41;5015996;28;46095;-76
2023/05/30 11:16:55;;;;;;;;;9.67;8.00;;;;;24.30;34.33;101703.00;5015824;28;45498;-74
2023/05/30 11:19:37;;;;;;;;;9.67;7.33;;;;;24.50;34.11;101716.47;5001587;28;45477;-76
2023/05/30 11:22:08;;;;;;;;;10.67;9.00;;;;;24.03;33.42;101636.22;4998174;28;45420;-76
2023/05/30 11:24:34;;;;;;;;;9.33;8.00;;;;;24.34;33.49;101664.44;4998353;28;47587;-75
2023/05/30 11:27:07;;;;;;;;;6.00;5.00;;;;;24.70;33.30;101715.66;5016673;28;45361;-76
2023/05/30 11:29:49;;;;;;;;;7.33;7.33;;;;;24.60;33.16;101690.16;5016157;28;45376;-77